SBKP/CPQ METAR and TAF weather

Enter ICAO airport designator
Station Type Date Time Source
SBKP METAR 2019/10/23 21:00 UTC NOAA

SBKP 232100Z 14021KT CAVOK 24/15 Q1014


Station Type Date Time Source
SBKP Decoded METAR 2019/10/23 21:00 UTC NOAA

Campinas Aeroporto , Brazil (SBKP) 23-00S 047-08W 661M
Oct 23, 2019 - 05:00 PM EDT / 2019.10.23 2100 UTC
Wind: from the SE (140 degrees) at 24 MPH (21 KT):0
Visibility: greater than 7 mile(s):0
Temperature: 75 F (24 C)
Dew Point: 59 F (15 C)
Relative Humidity: 57%
Pressure (altimeter): 29.94 in. Hg (1014 hPa)
ob: SBKP 232100Z 14021KT CAVOK 24/15 Q1014
cycle: 21

Station Type Date Time Source
SBKP TAF 2019/10/23 18:48 UTC NOAA

TAF SBKP 231500Z 2318/2418 13012KT 9999 SCT045 TN18/2408Z TX30/2417Z
BECMG 2320/2322 CAVOK
BECMG 2408/2410 06005KT
BECMG 2413/2415 34010KT 9999 SCT040
RMK PGH

Example: see airport list